sensor_id;sensor_type;location;lat;lon;timestamp;P1;durP1;ratioP1;P2;durP2;ratioP2
76259;SDS011;65076;52.362;6.588;2023-07-09T00:02:20;7.93;;;5.65;;
76259;SDS011;65076;52.362;6.588;2023-07-09T00:04:49;7.05;;;5.43;;
76259;SDS011;65076;52.362;6.588;2023-07-09T00:07:19;6.20;;;5.05;;
76259;SDS011;65076;52.362;6.588;2023-07-09T00:09:54;9.07;;;6.30;;
76259;SDS011;65076;52.362;6.588;2023-07-09T00:12:22;9.82;;;5.43;;
76259;SDS011;65076;52.362;6.588;2023-07-09T00:17:25;7.97;;;5.22;;
76259;SDS011;65076;52.362;6.588;2023-07-09T00:19:56;7.55;;;4.97;;
76259;SDS011;65076;52.362;6.588;2023-07-09T00:22:24;6.78;;;4.80;;
76259;SDS011;65076;52.362;6.588;2023-07-09T00:24:53;8.10;;;5.75;;
76259;SDS011;65076;52.362;6.588;2023-07-09T00:27:23;6.75;;;5.15;;
76259;SDS011;65076;52.362;6.588;2023-07-09T00:29:58;10.48;;;5.72;;
76259;SDS011;65076;52.362;6.588;2023-07-09T00:32:27;7.95;;;5.80;;
76259;SDS011;65076;52.362;6.588;2023-07-09T00:34:55;8.15;;;5.13;;
76259;SDS011;65076;52.362;6.588;2023-07-09T00:37:23;7.38;;;5.25;;
76259;SDS011;65076;52.362;6.588;2023-07-09T00:39:53;8.48;;;5.40;;
76259;SDS011;65076;52.362;6.588;2023-07-09T00:42:21;6.80;;;5.18;;
76259;SDS011;65076;52.362;6.588;2023-07-09T00:44:50;8.50;;;5.30;;
76259;SDS011;65076;52.362;6.588;2023-07-09T00:47:26;8.35;;;5.35;;
76259;SDS011;65076;52.362;6.588;2023-07-09T00:50:09;6.88;;;5.18;;
76259;SDS011;65076;52.362;6.588;2023-07-09T00:52:50;9.30;;;5.22;;
76259;SDS011;65076;52.362;6.588;2023-07-09T00:55:23;7.05;;;5.15;;
76259;SDS011;65076;52.362;6.588;2023-07-09T01:00:30;7.97;;;5.65;;
76259;SDS011;65076;52.362;6.588;2023-07-09T01:03:10;7.57;;;5.13;;
76259;SDS011;65076;52.362;6.588;2023-07-09T01:05:47;8.48;;;5.57;;
76259;SDS011;65076;52.362;6.588;2023-07-09T01:08:18;7.18;;;5.40;;
76259;SDS011;65076;52.362;6.588;2023-07-09T01:10:47;8.70;;;5.47;;
76259;SDS011;65076;52.362;6.588;2023-07-09T01:13:16;7.55;;;5.53;;
76259;SDS011;65076;52.362;6.588;2023-07-09T01:15:46;6.68;;;4.80;;
76259;SDS011;65076;52.362;6.588;2023-07-09T01:18:16;7.20;;;5.30;;
76259;SDS011;65076;52.362;6.588;2023-07-09T01:20:44;8.32;;;5.38;;
76259;SDS011;65076;52.362;6.588;2023-07-09T01:23:14;7.85;;;4.70;;
76259;SDS011;65076;52.362;6.588;2023-07-09T01:25:45;6.03;;;5.05;;
76259;SDS011;65076;52.362;6.588;2023-07-09T01:30:47;6.45;;;4.85;;
76259;SDS011;65076;52.362;6.588;2023-07-09T01:33:20;8.18;;;5.53;;
76259;SDS011;65076;52.362;6.588;2023-07-09T01:35:50;7.47;;;5.82;;
76259;SDS011;65076;52.362;6.588;2023-07-09T01:38:20;7.45;;;5.32;;
76259;SDS011;65076;52.362;6.588;2023-07-09T01:43:16;7.70;;;5.40;;
76259;SDS011;65076;52.362;6.588;2023-07-09T01:45:44;6.90;;;5.57;;
76259;SDS011;65076;52.362;6.588;2023-07-09T01:48:16;8.85;;;6.05;;
76259;SDS011;65076;52.362;6.588;2023-07-09T01:50:46;7.65;;;4.90;;
76259;SDS011;65076;52.362;6.588;2023-07-09T01:53:16;8.50;;;5.47;;
76259;SDS011;65076;52.362;6.588;2023-07-09T01:55:50;7.03;;;5.65;;
76259;SDS011;65076;52.362;6.588;2023-07-09T01:58:18;8.60;;;5.90;;
76259;SDS011;65076;52.362;6.588;2023-07-09T02:00:51;9.20;;;5.45;;
76259;SDS011;65076;52.362;6.588;2023-07-09T02:03:19;10.13;;;6.40;;
76259;SDS011;65076;52.362;6.588;2023-07-09T02:05:47;8.88;;;6.22;;
76259;SDS011;65076;52.362;6.588;2023-07-09T02:08:14;7.43;;;5.78;;
76259;SDS011;65076;52.362;6.588;2023-07-09T02:10:44;8.00;;;5.97;;
76259;SDS011;65076;52.362;6.588;2023-07-09T02:13:15;6.63;;;5.78;;
76259;SDS011;65076;52.362;6.588;2023-07-09T02:15:43;7.80;;;5.43;;
76259;SDS011;65076;52.362;6.588;2023-07-09T02:18:11;8.50;;;5.85;;
76259;SDS011;65076;52.362;6.588;2023-07-09T02:20:40;8.68;;;5.60;;
76259;SDS011;65076;52.362;6.588;2023-07-09T02:23:08;6.72;;;5.18;;
76259;SDS011;65076;52.362;6.588;2023-07-09T02:25:36;8.13;;;5.22;;
76259;SDS011;65076;52.362;6.588;2023-07-09T02:28:05;12.82;;;5.75;;
76259;SDS011;65076;52.362;6.588;2023-07-09T02:33:01;8.02;;;5.68;;
76259;SDS011;65076;52.362;6.588;2023-07-09T02:35:29;6.40;;;5.55;;
76259;SDS011;65076;52.362;6.588;2023-07-09T02:37:57;11.05;;;5.72;;
76259;SDS011;65076;52.362;6.588;2023-07-09T02:40:25;9.02;;;5.63;;
76259;SDS011;65076;52.362;6.588;2023-07-09T02:42:53;9.13;;;5.78;;
76259;SDS011;65076;52.362;6.588;2023-07-09T02:45:22;7.45;;;5.07;;
76259;SDS011;65076;52.362;6.588;2023-07-09T02:47:50;8.63;;;5.20;;
76259;SDS011;65076;52.362;6.588;2023-07-09T02:50:19;7.70;;;5.38;;
76259;SDS011;65076;52.362;6.588;2023-07-09T02:52:47;7.55;;;5.63;;
76259;SDS011;65076;52.362;6.588;2023-07-09T02:55:15;7.60;;;5.82;;
76259;SDS011;65076;52.362;6.588;2023-07-09T02:57:44;9.60;;;5.38;;
76259;SDS011;65076;52.362;6.588;2023-07-09T03:00:12;8.38;;;5.82;;
76259;SDS011;65076;52.362;6.588;2023-07-09T03:02:42;9.10;;;5.63;;
76259;SDS011;65076;52.362;6.588;2023-07-09T03:05:10;7.43;;;6.38;;
76259;SDS011;65076;52.362;6.588;2023-07-09T03:07:38;8.35;;;5.93;;
76259;SDS011;65076;52.362;6.588;2023-07-09T03:10:07;8.15;;;5.50;;
76259;SDS011;65076;52.362;6.588;2023-07-09T03:12:35;10.80;;;5.82;;
76259;SDS011;65076;52.362;6.588;2023-07-09T03:15:03;10.98;;;6.22;;
76259;SDS011;65076;52.362;6.588;2023-07-09T03:17:33;9.18;;;6.22;;
76259;SDS011;65076;52.362;6.588;2023-07-09T03:20:02;10.98;;;6.03;;
76259;SDS011;65076;52.362;6.588;2023-07-09T03:22:34;7.85;;;6.63;;
76259;SDS011;65076;52.362;6.588;2023-07-09T03:25:02;9.65;;;5.38;;
76259;SDS011;65076;52.362;6.588;2023-07-09T03:27:30;8.65;;;6.25;;
76259;SDS011;65076;52.362;6.588;2023-07-09T03:29:58;8.80;;;6.15;;
76259;SDS011;65076;52.362;6.588;2023-07-09T03:32:26;7.13;;;5.90;;
76259;SDS011;65076;52.362;6.588;2023-07-09T03:34:54;9.88;;;5.93;;
76259;SDS011;65076;52.362;6.588;2023-07-09T03:37:24;8.82;;;6.10;;
76259;SDS011;65076;52.362;6.588;2023-07-09T03:39:51;9.30;;;6.18;;
76259;SDS011;65076;52.362;6.588;2023-07-09T03:42:19;9.30;;;6.13;;
76259;SDS011;65076;52.362;6.588;2023-07-09T03:44:47;9.40;;;6.40;;
76259;SDS011;65076;52.362;6.588;2023-07-09T03:47:15;8.98;;;6.45;;
76259;SDS011;65076;52.362;6.588;2023-07-09T03:49:44;7.35;;;5.47;;
76259;SDS011;65076;52.362;6.588;2023-07-09T03:52:12;12.32;;;7.05;;
76259;SDS011;65076;52.362;6.588;2023-07-09T03:54:41;10.15;;;6.53;;
76259;SDS011;65076;52.362;6.588;2023-07-09T03:57:09;9.85;;;6.65;;
76259;SDS011;65076;52.362;6.588;2023-07-09T03:59:37;9.45;;;6.28;;
76259;SDS011;65076;52.362;6.588;2023-07-09T04:02:06;8.48;;;5.57;;
76259;SDS011;65076;52.362;6.588;2023-07-09T04:04:34;8.18;;;6.22;;
76259;SDS011;65076;52.362;6.588;2023-07-09T04:07:02;8.40;;;6.75;;
76259;SDS011;65076;52.362;6.588;2023-07-09T04:09:30;9.68;;;6.65;;
76259;SDS011;65076;52.362;6.588;2023-07-09T04:12:00;10.68;;;6.70;;
76259;SDS011;65076;52.362;6.588;2023-07-09T04:14:29;11.95;;;6.90;;
76259;SDS011;65076;52.362;6.588;2023-07-09T04:16:57;11.88;;;6.82;;
76259;SDS011;65076;52.362;6.588;2023-07-09T04:19:25;8.80;;;7.25;;
76259;SDS011;65076;52.362;6.588;2023-07-09T04:21:54;11.85;;;6.75;;
76259;SDS011;65076;52.362;6.588;2023-07-09T04:24:22;9.80;;;6.50;;
76259;SDS011;65076;52.362;6.588;2023-07-09T04:26:50;10.80;;;6.85;;
76259;SDS011;65076;52.362;6.588;2023-07-09T04:29:23;8.15;;;6.30;;
76259;SDS011;65076;52.362;6.588;2023-07-09T04:31:51;9.60;;;7.70;;
76259;SDS011;65076;52.362;6.588;2023-07-09T04:34:19;7.72;;;6.72;;
76259;SDS011;65076;52.362;6.588;2023-07-09T04:36:48;8.70;;;6.80;;
76259;SDS011;65076;52.362;6.588;2023-07-09T04:39:16;8.00;;;6.70;;
76259;SDS011;65076;52.362;6.588;2023-07-09T04:41:45;10.65;;;6.38;;
76259;SDS011;65076;52.362;6.588;2023-07-09T04:46:42;8.57;;;6.15;;
76259;SDS011;65076;52.362;6.588;2023-07-09T04:49:12;8.07;;;6.68;;
76259;SDS011;65076;52.362;6.588;2023-07-09T04:51:40;8.07;;;5.95;;
76259;SDS011;65076;52.362;6.588;2023-07-09T04:54:08;8.15;;;6.43;;
76259;SDS011;65076;52.362;6.588;2023-07-09T04:56:36;9.70;;;6.63;;
76259;SDS011;65076;52.362;6.588;2023-07-09T04:59:04;9.88;;;7.07;;
76259;SDS011;65076;52.362;6.588;2023-07-09T05:01:32;8.65;;;6.70;;
76259;SDS011;65076;52.362;6.588;2023-07-09T05:04:01;7.28;;;6.00;;
76259;SDS011;65076;52.362;6.588;2023-07-09T05:06:30;10.85;;;7.28;;
76259;SDS011;65076;52.362;6.588;2023-07-09T05:08:59;9.55;;;6.72;;
76259;SDS011;65076;52.362;6.588;2023-07-09T05:11:27;9.40;;;7.22;;
76259;SDS011;65076;52.362;6.588;2023-07-09T05:13:56;8.45;;;6.90;;
76259;SDS011;65076;52.362;6.588;2023-07-09T05:16:24;9.25;;;7.47;;
76259;SDS011;65076;52.362;6.588;2023-07-09T05:18:52;10.57;;;6.80;;
76259;SDS011;65076;52.362;6.588;2023-07-09T05:21:21;10.05;;;7.72;;
76259;SDS011;65076;52.362;6.588;2023-07-09T05:23:50;9.30;;;7.32;;
76259;SDS011;65076;52.362;6.588;2023-07-09T05:26:18;11.57;;;7.43;;
76259;SDS011;65076;52.362;6.588;2023-07-09T05:28:46;11.38;;;7.20;;
76259;SDS011;65076;52.362;6.588;2023-07-09T05:31:14;11.35;;;7.75;;
76259;SDS011;65076;52.362;6.588;2023-07-09T05:33:42;8.95;;;7.07;;
76259;SDS011;65076;52.362;6.588;2023-07-09T05:36:10;9.32;;;7.80;;
76259;SDS011;65076;52.362;6.588;2023-07-09T05:38:43;10.55;;;8.05;;
76259;SDS011;65076;52.362;6.588;2023-07-09T05:41:12;10.35;;;7.82;;
76259;SDS011;65076;52.362;6.588;2023-07-09T05:43:44;11.68;;;8.20;;
76259;SDS011;65076;52.362;6.588;2023-07-09T05:46:12;11.13;;;7.38;;
76259;SDS011;65076;52.362;6.588;2023-07-09T05:48:41;10.52;;;8.48;;
76259;SDS011;65076;52.362;6.588;2023-07-09T05:51:11;9.38;;;7.50;;
76259;SDS011;65076;52.362;6.588;2023-07-09T05:53:39;11.45;;;7.80;;
76259;SDS011;65076;52.362;6.588;2023-07-09T05:56:09;9.85;;;8.38;;
76259;SDS011;65076;52.362;6.588;2023-07-09T05:58:37;12.07;;;8.25;;
76259;SDS011;65076;52.362;6.588;2023-07-09T06:01:05;10.63;;;8.23;;
76259;SDS011;65076;52.362;6.588;2023-07-09T06:03:33;10.85;;;8.60;;
76259;SDS011;65076;52.362;6.588;2023-07-09T06:06:02;12.60;;;9.32;;
76259;SDS011;65076;52.362;6.588;2023-07-09T06:10:58;9.55;;;8.35;;
76259;SDS011;65076;52.362;6.588;2023-07-09T06:13:30;10.07;;;7.97;;
76259;SDS011;65076;52.362;6.588;2023-07-09T06:15:59;10.80;;;7.97;;
76259;SDS011;65076;52.362;6.588;2023-07-09T06:18:28;10.52;;;8.45;;
76259;SDS011;65076;52.362;6.588;2023-07-09T06:23:27;10.50;;;9.10;;
76259;SDS011;65076;52.362;6.588;2023-07-09T06:25:56;12.90;;;9.02;;
76259;SDS011;65076;52.362;6.588;2023-07-09T06:28:25;10.63;;;8.15;;
76259;SDS011;65076;52.362;6.588;2023-07-09T06:30:57;14.68;;;10.10;;
76259;SDS011;65076;52.362;6.588;2023-07-09T06:33:26;12.52;;;8.45;;
76259;SDS011;65076;52.362;6.588;2023-07-09T06:35:56;11.13;;;7.95;;
76259;SDS011;65076;52.362;6.588;2023-07-09T06:38:28;10.65;;;8.55;;
76259;SDS011;65076;52.362;6.588;2023-07-09T06:45:54;10.43;;;8.30;;
76259;SDS011;65076;52.362;6.588;2023-07-09T06:48:28;12.73;;;9.60;;
76259;SDS011;65076;52.362;6.588;2023-07-09T06:53:26;11.60;;;9.40;;
76259;SDS011;65076;52.362;6.588;2023-07-09T06:55:55;11.98;;;9.35;;
76259;SDS011;65076;52.362;6.588;2023-07-09T06:58:28;9.65;;;8.35;;
76259;SDS011;65076;52.362;6.588;2023-07-09T07:01:01;11.60;;;10.00;;
76259;SDS011;65076;52.362;6.588;2023-07-09T07:03:32;11.07;;;8.38;;
76259;SDS011;65076;52.362;6.588;2023-07-09T07:06:01;13.35;;;9.05;;
76259;SDS011;65076;52.362;6.588;2023-07-09T07:08:30;12.88;;;8.70;;
76259;SDS011;65076;52.362;6.588;2023-07-09T07:10:59;16.13;;;9.55;;
76259;SDS011;65076;52.362;6.588;2023-07-09T07:13:29;14.88;;;9.73;;
76259;SDS011;65076;52.362;6.588;2023-07-09T07:15:59;12.98;;;9.73;;
76259;SDS011;65076;52.362;6.588;2023-07-09T07:18:28;11.20;;;9.32;;
76259;SDS011;65076;52.362;6.588;2023-07-09T07:20:57;11.68;;;8.98;;
76259;SDS011;65076;52.362;6.588;2023-07-09T07:23:25;12.07;;;9.77;;
76259;SDS011;65076;52.362;6.588;2023-07-09T07:25:54;11.63;;;9.00;;
76259;SDS011;65076;52.362;6.588;2023-07-09T07:28:22;13.25;;;9.05;;
76259;SDS011;65076;52.362;6.588;2023-07-09T07:31:00;11.32;;;9.32;;
76259;SDS011;65076;52.362;6.588;2023-07-09T07:34:16;11.43;;;8.15;;
76259;SDS011;65076;52.362;6.588;2023-07-09T07:36:44;11.35;;;9.02;;
76259;SDS011;65076;52.362;6.588;2023-07-09T07:39:12;11.68;;;8.77;;
76259;SDS011;65076;52.362;6.588;2023-07-09T07:41:41;13.43;;;9.02;;
76259;SDS011;65076;52.362;6.588;2023-07-09T07:44:09;13.88;;;9.32;;
76259;SDS011;65076;52.362;6.588;2023-07-09T07:46:37;12.07;;;8.55;;
76259;SDS011;65076;52.362;6.588;2023-07-09T07:49:05;10.23;;;7.72;;
76259;SDS011;65076;52.362;6.588;2023-07-09T07:51:34;11.40;;;9.02;;
76259;SDS011;65076;52.362;6.588;2023-07-09T07:54:03;11.10;;;9.38;;
76259;SDS011;65076;52.362;6.588;2023-07-09T07:56:32;10.73;;;7.65;;
76259;SDS011;65076;52.362;6.588;2023-07-09T07:59:00;9.38;;;8.05;;
76259;SDS011;65076;52.362;6.588;2023-07-09T08:01:28;11.32;;;8.68;;
76259;SDS011;65076;52.362;6.588;2023-07-09T08:03:57;10.60;;;8.63;;
76259;SDS011;65076;52.362;6.588;2023-07-09T08:06:26;11.77;;;8.77;;
76259;SDS011;65076;52.362;6.588;2023-07-09T08:08:55;12.40;;;8.40;;
76259;SDS011;65076;52.362;6.588;2023-07-09T08:11:23;11.10;;;8.80;;
76259;SDS011;65076;52.362;6.588;2023-07-09T08:13:54;10.57;;;8.48;;
76259;SDS011;65076;52.362;6.588;2023-07-09T08:16:23;13.75;;;9.18;;
76259;SDS011;65076;52.362;6.588;2023-07-09T08:18:51;11.75;;;8.52;;
76259;SDS011;65076;52.362;6.588;2023-07-09T08:21:20;10.13;;;8.73;;
76259;SDS011;65076;52.362;6.588;2023-07-09T08:23:48;11.05;;;8.88;;
76259;SDS011;65076;52.362;6.588;2023-07-09T08:26:17;11.68;;;8.00;;
76259;SDS011;65076;52.362;6.588;2023-07-09T08:28:45;11.13;;;8.98;;
76259;SDS011;65076;52.362;6.588;2023-07-09T08:31:14;9.90;;;7.90;;
76259;SDS011;65076;52.362;6.588;2023-07-09T08:33:42;12.75;;;8.88;;
76259;SDS011;65076;52.362;6.588;2023-07-09T08:36:10;11.57;;;7.78;;
76259;SDS011;65076;52.362;6.588;2023-07-09T08:38:38;10.50;;;8.02;;
76259;SDS011;65076;52.362;6.588;2023-07-09T08:41:08;10.88;;;7.40;;
76259;SDS011;65076;52.362;6.588;2023-07-09T08:43:56;11.25;;;7.70;;
76259;SDS011;65076;52.362;6.588;2023-07-09T08:46:54;12.85;;;8.13;;
76259;SDS011;65076;52.362;6.588;2023-07-09T08:49:35;11.25;;;7.47;;
76259;SDS011;65076;52.362;6.588;2023-07-09T08:52:14;10.93;;;7.28;;
76259;SDS011;65076;52.362;6.588;2023-07-09T08:55:04;9.40;;;7.65;;
76259;SDS011;65076;52.362;6.588;2023-07-09T08:57:40;9.07;;;7.25;;
76259;SDS011;65076;52.362;6.588;2023-07-09T09:00:15;9.63;;;7.07;;
76259;SDS011;65076;52.362;6.588;2023-07-09T09:02:48;11.40;;;7.57;;
76259;SDS011;65076;52.362;6.588;2023-07-09T09:05:22;9.20;;;8.10;;
76259;SDS011;65076;52.362;6.588;2023-07-09T09:07:54;10.90;;;7.78;;
76259;SDS011;65076;52.362;6.588;2023-07-09T09:10:36;12.40;;;7.50;;
76259;SDS011;65076;52.362;6.588;2023-07-09T09:13:25;9.80;;;8.20;;
76259;SDS011;65076;52.362;6.588;2023-07-09T09:15:59;10.50;;;7.95;;
76259;SDS011;65076;52.362;6.588;2023-07-09T09:18:40;11.70;;;7.00;;
76259;SDS011;65076;52.362;6.588;2023-07-09T09:21:13;9.57;;;6.57;;
76259;SDS011;65076;52.362;6.588;2023-07-09T09:23:49;11.82;;;6.57;;
76259;SDS011;65076;52.362;6.588;2023-07-09T09:26:26;9.52;;;6.13;;
76259;SDS011;65076;52.362;6.588;2023-07-09T09:29:00;8.85;;;6.03;;
76259;SDS011;65076;52.362;6.588;2023-07-09T09:31:38;6.93;;;5.13;;
76259;SDS011;65076;52.362;6.588;2023-07-09T09:34:16;7.30;;;6.28;;
76259;SDS011;65076;52.362;6.588;2023-07-09T09:36:45;13.27;;;6.35;;
76259;SDS011;65076;52.362;6.588;2023-07-09T09:41:41;8.68;;;6.47;;
76259;SDS011;65076;52.362;6.588;2023-07-09T09:44:19;7.97;;;5.53;;
76259;SDS011;65076;52.362;6.588;2023-07-09T09:46:51;7.43;;;5.78;;
76259;SDS011;65076;52.362;6.588;2023-07-09T09:49:20;7.25;;;5.78;;
76259;SDS011;65076;52.362;6.588;2023-07-09T09:51:48;8.32;;;5.80;;
76259;SDS011;65076;52.362;6.588;2023-07-09T09:54:17;7.40;;;5.38;;
76259;SDS011;65076;52.362;6.588;2023-07-09T09:56:48;6.53;;;5.57;;
76259;SDS011;65076;52.362;6.588;2023-07-09T09:59:20;8.35;;;5.18;;
76259;SDS011;65076;52.362;6.588;2023-07-09T10:01:56;6.13;;;5.18;;
76259;SDS011;65076;52.362;6.588;2023-07-09T10:04:26;6.38;;;5.28;;
76259;SDS011;65076;52.362;6.588;2023-07-09T10:06:56;6.70;;;5.68;;
76259;SDS011;65076;52.362;6.588;2023-07-09T10:09:34;8.38;;;5.30;;
76259;SDS011;65076;52.362;6.588;2023-07-09T10:12:16;7.80;;;5.78;;
76259;SDS011;65076;52.362;6.588;2023-07-09T10:15:06;8.02;;;5.63;;
76259;SDS011;65076;52.362;6.588;2023-07-09T10:17:53;6.25;;;4.65;;
76259;SDS011;65076;52.362;6.588;2023-07-09T10:20:32;7.38;;;4.65;;
76259;SDS011;65076;52.362;6.588;2023-07-09T10:23:11;6.80;;;4.80;;
76259;SDS011;65076;52.362;6.588;2023-07-09T10:25:51;7.20;;;5.07;;
76259;SDS011;65076;52.362;6.588;2023-07-09T10:28:38;6.95;;;5.28;;
76259;SDS011;65076;52.362;6.588;2023-07-09T10:31:27;7.47;;;5.40;;
76259;SDS011;65076;52.362;6.588;2023-07-09T10:34:12;6.68;;;4.97;;
76259;SDS011;65076;52.362;6.588;2023-07-09T10:40:00;7.70;;;5.10;;
76259;SDS011;65076;52.362;6.588;2023-07-09T10:42:37;6.97;;;5.10;;
76259;SDS011;65076;52.362;6.588;2023-07-09T10:45:13;7.40;;;4.40;;
76259;SDS011;65076;52.362;6.588;2023-07-09T10:47:49;5.30;;;4.75;;
76259;SDS011;65076;52.362;6.588;2023-07-09T10:50:27;9.20;;;4.82;;
76259;SDS011;65076;52.362;6.588;2023-07-09T10:53:03;8.50;;;4.55;;
76259;SDS011;65076;52.362;6.588;2023-07-09T10:55:41;6.07;;;4.30;;
76259;SDS011;65076;52.362;6.588;2023-07-09T10:58:22;5.30;;;4.45;;
76259;SDS011;65076;52.362;6.588;2023-07-09T11:01:00;6.40;;;4.53;;
76259;SDS011;65076;52.362;6.588;2023-07-09T11:03:36;5.78;;;4.18;;
76259;SDS011;65076;52.362;6.588;2023-07-09T11:06:13;7.47;;;4.70;;
76259;SDS011;65076;52.362;6.588;2023-07-09T11:08:50;5.85;;;4.78;;
76259;SDS011;65076;52.362;6.588;2023-07-09T11:11:25;5.90;;;4.50;;
76259;SDS011;65076;52.362;6.588;2023-07-09T11:14:02;8.82;;;5.13;;
76259;SDS011;65076;52.362;6.588;2023-07-09T11:16:38;7.30;;;4.63;;
76259;SDS011;65076;52.362;6.588;2023-07-09T11:19:16;6.57;;;4.88;;
76259;SDS011;65076;52.362;6.588;2023-07-09T11:22:02;9.07;;;5.05;;
76259;SDS011;65076;52.362;6.588;2023-07-09T11:24:35;7.32;;;4.90;;
76259;SDS011;65076;52.362;6.588;2023-07-09T11:27:17;5.82;;;4.38;;
76259;SDS011;65076;52.362;6.588;2023-07-09T11:29:55;6.15;;;4.68;;
76259;SDS011;65076;52.362;6.588;2023-07-09T11:32:26;4.90;;;4.10;;
76259;SDS011;65076;52.362;6.588;2023-07-09T11:35:06;7.13;;;4.47;;
76259;SDS011;65076;52.362;6.588;2023-07-09T11:37:44;9.20;;;4.53;;
76259;SDS011;65076;52.362;6.588;2023-07-09T11:40:13;7.45;;;4.88;;
76259;SDS011;65076;52.362;6.588;2023-07-09T11:42:47;7.93;;;4.43;;
76259;SDS011;65076;52.362;6.588;2023-07-09T11:45:19;8.20;;;4.80;;
76259;SDS011;65076;52.362;6.588;2023-07-09T11:47:55;7.10;;;4.68;;
76259;SDS011;65076;52.362;6.588;2023-07-09T11:50:38;5.28;;;4.57;;
76259;SDS011;65076;52.362;6.588;2023-07-09T11:53:18;5.90;;;4.25;;
76259;SDS011;65076;52.362;6.588;2023-07-09T11:56:03;7.05;;;4.38;;
76259;SDS011;65076;52.362;6.588;2023-07-09T11:58:31;6.47;;;4.35;;
76259;SDS011;65076;52.362;6.588;2023-07-09T12:03:29;8.15;;;4.35;;
76259;SDS011;65076;52.362;6.588;2023-07-09T12:06:03;7.10;;;4.95;;
76259;SDS011;65076;52.362;6.588;2023-07-09T12:08:41;5.80;;;4.13;;
76259;SDS011;65076;52.362;6.588;2023-07-09T12:11:18;8.13;;;4.47;;
76259;SDS011;65076;52.362;6.588;2023-07-09T12:13:48;6.22;;;4.55;;
76259;SDS011;65076;52.362;6.588;2023-07-09T12:16:20;5.25;;;4.43;;
76259;SDS011;65076;52.362;6.588;2023-07-09T12:18:52;7.15;;;5.05;;
76259;SDS011;65076;52.362;6.588;2023-07-09T12:21:22;5.10;;;4.60;;
76259;SDS011;65076;52.362;6.588;2023-07-09T12:23:52;6.22;;;4.32;;
76259;SDS011;65076;52.362;6.588;2023-07-09T12:26:22;5.20;;;4.10;;
76259;SDS011;65076;52.362;6.588;2023-07-09T12:28:50;6.72;;;4.15;;
76259;SDS011;65076;52.362;6.588;2023-07-09T12:31:21;5.32;;;4.10;;
76259;SDS011;65076;52.362;6.588;2023-07-09T12:33:54;9.63;;;4.57;;
76259;SDS011;65076;52.362;6.588;2023-07-09T12:36:28;5.18;;;3.90;;
76259;SDS011;65076;52.362;6.588;2023-07-09T12:38:57;6.47;;;4.13;;
76259;SDS011;65076;52.362;6.588;2023-07-09T12:44:04;5.85;;;3.85;;
76259;SDS011;65076;52.362;6.588;2023-07-09T12:46:33;4.93;;;4.20;;
76259;SDS011;65076;52.362;6.588;2023-07-09T12:49:02;4.32;;;3.60;;
76259;SDS011;65076;52.362;6.588;2023-07-09T12:51:35;6.82;;;4.03;;
76259;SDS011;65076;52.362;6.588;2023-07-09T12:54:10;5.75;;;3.92;;
76259;SDS011;65076;52.362;6.588;2023-07-09T12:56:42;5.28;;;3.92;;
76259;SDS011;65076;52.362;6.588;2023-07-09T12:59:15;7.57;;;4.25;;
76259;SDS011;65076;52.362;6.588;2023-07-09T13:01:50;5.80;;;4.20;;
76259;SDS011;65076;52.362;6.588;2023-07-09T13:04:27;5.32;;;4.20;;
76259;SDS011;65076;52.362;6.588;2023-07-09T13:06:59;5.70;;;3.95;;
76259;SDS011;65076;52.362;6.588;2023-07-09T13:09:27;7.07;;;4.20;;
76259;SDS011;65076;52.362;6.588;2023-07-09T13:11:56;6.63;;;4.45;;
76259;SDS011;65076;52.362;6.588;2023-07-09T13:14:27;5.43;;;3.90;;
76259;SDS011;65076;52.362;6.588;2023-07-09T13:17:02;5.63;;;4.50;;
76259;SDS011;65076;52.362;6.588;2023-07-09T13:19:32;5.78;;;4.10;;
76259;SDS011;65076;52.362;6.588;2023-07-09T13:22:03;6.50;;;4.32;;
76259;SDS011;65076;52.362;6.588;2023-07-09T13:24:33;7.38;;;4.13;;
76259;SDS011;65076;52.362;6.588;2023-07-09T13:29:31;5.80;;;4.43;;
76259;SDS011;65076;52.362;6.588;2023-07-09T13:32:01;6.18;;;4.20;;
76259;SDS011;65076;52.362;6.588;2023-07-09T13:34:29;5.90;;;4.40;;
76259;SDS011;65076;52.362;6.588;2023-07-09T13:36:59;5.05;;;4.25;;
76259;SDS011;65076;52.362;6.588;2023-07-09T13:39:29;7.13;;;4.43;;
76259;SDS011;65076;52.362;6.588;2023-07-09T13:41:57;5.53;;;4.00;;
76259;SDS011;65076;52.362;6.588;2023-07-09T13:44:26;6.45;;;4.53;;
76259;SDS011;65076;52.362;6.588;2023-07-09T13:46:57;6.00;;;4.95;;
76259;SDS011;65076;52.362;6.588;2023-07-09T13:49:26;6.00;;;4.25;;
76259;SDS011;65076;52.362;6.588;2023-07-09T13:51:56;7.72;;;5.43;;
76259;SDS011;65076;52.362;6.588;2023-07-09T13:54:30;6.30;;;4.28;;
76259;SDS011;65076;52.362;6.588;2023-07-09T13:57:04;5.55;;;4.40;;
76259;SDS011;65076;52.362;6.588;2023-07-09T13:59:37;9.43;;;4.72;;
76259;SDS011;65076;52.362;6.588;2023-07-09T14:02:07;6.97;;;4.22;;
76259;SDS011;65076;52.362;6.588;2023-07-09T14:04:50;7.47;;;3.75;;
76259;SDS011;65076;52.362;6.588;2023-07-09T14:07:25;8.30;;;4.10;;
76259;SDS011;65076;52.362;6.588;2023-07-09T14:09:59;6.53;;;4.43;;
76259;SDS011;65076;52.362;6.588;2023-07-09T14:12:28;6.50;;;4.25;;
76259;SDS011;65076;52.362;6.588;2023-07-09T14:14:58;6.70;;;4.35;;
76259;SDS011;65076;52.362;6.588;2023-07-09T14:17:28;11.93;;;4.68;;
76259;SDS011;65076;52.362;6.588;2023-07-09T14:19:56;7.97;;;4.22;;
76259;SDS011;65076;52.362;6.588;2023-07-09T14:22:28;6.25;;;3.88;;
76259;SDS011;65076;52.362;6.588;2023-07-09T14:25:03;7.47;;;4.35;;
76259;SDS011;65076;52.362;6.588;2023-07-09T14:27:33;8.20;;;4.50;;
76259;SDS011;65076;52.362;6.588;2023-07-09T14:30:01;6.63;;;4.90;;
76259;SDS011;65076;52.362;6.588;2023-07-09T14:35:02;4.82;;;4.30;;
76259;SDS011;65076;52.362;6.588;2023-07-09T14:37:38;6.10;;;4.40;;
76259;SDS011;65076;52.362;6.588;2023-07-09T14:40:08;6.82;;;4.45;;
76259;SDS011;65076;52.362;6.588;2023-07-09T14:42:37;5.18;;;4.28;;
76259;SDS011;65076;52.362;6.588;2023-07-09T14:45:15;9.35;;;4.90;;
76259;SDS011;65076;52.362;6.588;2023-07-09T14:47:48;6.75;;;4.75;;
76259;SDS011;65076;52.362;6.588;2023-07-09T14:50:16;6.20;;;3.97;;
76259;SDS011;65076;52.362;6.588;2023-07-09T14:52:46;6.40;;;4.50;;
76259;SDS011;65076;52.362;6.588;2023-07-09T14:55:17;5.85;;;4.35;;
76259;SDS011;65076;52.362;6.588;2023-07-09T14:57:48;6.28;;;4.00;;
76259;SDS011;65076;52.362;6.588;2023-07-09T15:00:17;6.47;;;4.07;;
76259;SDS011;65076;52.362;6.588;2023-07-09T15:02:48;4.57;;;3.53;;
76259;SDS011;65076;52.362;6.588;2023-07-09T15:05:20;6.13;;;4.05;;
76259;SDS011;65076;52.362;6.588;2023-07-09T15:07:51;6.30;;;3.92;;
76259;SDS011;65076;52.362;6.588;2023-07-09T15:10:22;6.30;;;4.07;;
76259;SDS011;65076;52.362;6.588;2023-07-09T15:12:53;7.97;;;4.45;;
76259;SDS011;65076;52.362;6.588;2023-07-09T15:15:23;8.55;;;4.20;;
76259;SDS011;65076;52.362;6.588;2023-07-09T15:17:54;6.93;;;4.10;;
76259;SDS011;65076;52.362;6.588;2023-07-09T15:20:25;7.85;;;4.40;;
76259;SDS011;65076;52.362;6.588;2023-07-09T15:22:57;8.60;;;4.25;;
76259;SDS011;65076;52.362;6.588;2023-07-09T15:25:28;7.05;;;4.15;;
76259;SDS011;65076;52.362;6.588;2023-07-09T15:27:57;7.78;;;3.95;;
76259;SDS011;65076;52.362;6.588;2023-07-09T15:30:26;7.60;;;4.40;;
76259;SDS011;65076;52.362;6.588;2023-07-09T15:32:58;12.73;;;5.30;;
76259;SDS011;65076;52.362;6.588;2023-07-09T15:35:35;11.45;;;5.25;;
76259;SDS011;65076;52.362;6.588;2023-07-09T15:38:05;11.98;;;4.65;;
76259;SDS011;65076;52.362;6.588;2023-07-09T15:40:54;12.82;;;5.60;;
76259;SDS011;65076;52.362;6.588;2023-07-09T15:43:23;10.18;;;4.00;;
76259;SDS011;65076;52.362;6.588;2023-07-09T15:45:53;12.23;;;5.22;;
76259;SDS011;65076;52.362;6.588;2023-07-09T15:48:25;9.70;;;4.85;;
76259;SDS011;65076;52.362;6.588;2023-07-09T15:50:57;9.00;;;4.85;;
76259;SDS011;65076;52.362;6.588;2023-07-09T15:53:25;8.60;;;4.60;;